METAR Data
IDs: Format: Raw Decoded Include TAF

Data at: 0110 UTC 12 May 2021

KTYQ 120055Z AUTO 36008KT 10SM CLR 09/01 A3033 RMK AO2 T00900009
KTYQ 120035Z AUTO 36007KT 10SM CLR 10/01 A3031 RMK AO2 T00950013
KTYQ 120015Z AUTO 36007KT 10SM CLR 10/01 A3031 RMK AO2 T01000013
KTYQ 112355Z AUTO 36009KT 10SM CLR 11/00 A3031 RMK AO2 T01050002 10125 20105
KTYQ 112335Z AUTO 01010KT 10SM CLR 11/00 A3030 RMK AO2 T01100004
KTYQ 112315Z AUTO 01011KT 10SM CLR 11/01 A3029 RMK AO2 T01110008
KTYQ 112255Z AUTO 36012G17KT 10SM CLR 11/01 A3028 RMK AO2 T01140005
KTYQ 112235Z AUTO 01012G16KT 10SM CLR 12/01 A3028 RMK AO2 T01150005
KTYQ 112215Z AUTO 02010G15KT 10SM SCT055 12/00 A3028 RMK AO2 T01160003
KTYQ 112155Z AUTO 03008KT 10SM SCT055 12/00 A3029 RMK AO2 T01180003
KTYQ 112135Z AUTO 36010G14KT 10SM SCT055 12/01 A3029 RMK AO2 T01220014
KTYQ 112115Z AUTO 34010G15KT 10SM SCT055 12/01 A3028 RMK AO2 T01200006
KTYQ 112055Z AUTO 36014KT 10SM SCT050 12/02 A3028 RMK AO2 T01200017
KTYQ 112035Z AUTO 02013G17KT 10SM BKN050 12/02 A3028 RMK AO2 T01150019
KTYQ 112015Z AUTO 02009KT 10SM SCT050 12/02 A3028 RMK AO2 T01200018
KTYQ 111955Z AUTO 02012KT 10SM SCT050 12/03 A3029 RMK AO2 T01220025
KTYQ 111935Z AUTO 02013G21KT 10SM SCT050 12/02 A3029 RMK AO2 T01200022
KTYQ 111915Z AUTO 34012G17KT 10SM SCT050 12/02 A3029 RMK AO2 T01200024
KTYQ 111850Z AUTO 03011G16KT 10SM BKN050 12/02 A3030 RMK AO2 T01150022
KTYQ 111835Z AUTO 35010G17KT 10SM SCT050 12/02 A3030 RMK AO2 T01160018
KTYQ 111815Z AUTO 02007G17KT 10SM SCT050 11/01 A3031 RMK AO2 T01140009
KTYQ 111755Z AUTO 04012G17KT 10SM SCT055 11/01 A3031 RMK AO2 T01120013 10117 20057
KTYQ 111735Z AUTO 36009G15KT 10SM SCT049 11/01 A3032 RMK AO2 T01120008
KTYQ 111715Z AUTO 02011G15KT 10SM SCT049 11/02 A3033 RMK AO2 T01080018
KTYQ 111655Z AUTO 02009G15KT 10SM SCT049 11/02 A3033 RMK AO2 T01100021
KTYQ 111635Z AUTO 04009KT 10SM CLR 11/02 A3033 RMK AO2 T01070021
KTYQ 111615Z AUTO 03008G14KT 10SM CLR 11/02 A3032 RMK AO2 T01050023
KTYQ 111555Z AUTO 03009G15KT 10SM CLR 10/02 A3032 RMK AO2 T01010018
KTYQ 111535Z AUTO 04009G14KT 10SM CLR 10/02 A3032 RMK AO2 T00980024
KTYQ 111515Z AUTO 02007G16KT 10SM CLR 10/01 A3032 RMK AO2 T00950012
KTYQ 111455Z AUTO 05012KT 10SM CLR 09/02 A3032 RMK AO2 T00920018
KTYQ 111435Z AUTO 04011KT 10SM SCT100 09/01 A3032 RMK AO2 T00850012
KTYQ 111415Z AUTO 04010KT 10SM SCT100 08/02 A3032 RMK AO2 T00840019
KTYQ 111355Z AUTO 03011KT 10SM SCT100 08/01 A3031 RMK AO2 T00770012
KTYQ 111335Z AUTO 04008KT 10SM SCT100 07/02 A3030 RMK AO2 T00730016
KTYQ 111315Z AUTO 04008KT 10SM SCT100 07/02 A3029 RMK AO2 T00660015
KTYQ 111255Z AUTO 02009KT 10SM BKN100 06/02 A3028 RMK AO2 T00640018
KTYQ 111235Z AUTO 03007KT 10SM BKN090 OVC110 06/01 A3028 RMK AO2 T00600010
KTYQ 111215Z AUTO 04006KT 10SM OVC090 06/01 A3028 RMK AO2 T00580013
KTYQ 111155Z AUTO 01006KT 10SM OVC090 06/02 A3028 RMK AO2 60005 70009 T00560016 10085 20055
KTYQ 111135Z AUTO 03005KT 10SM OVC080 06/01 A3026 RMK AO2 T00550014
KTYQ 111115Z AUTO 02007KT 10SM OVC080 06/02 A3025 RMK AO2 T00550016
KTYQ 111055Z AUTO 02007KT 10SM OVC080 06/02 A3024 RMK AO2 T00560017
KTYQ 111035Z AUTO 02006KT 10SM SCT060 OVC080 06/02 A3024 RMK AO2 T00570021
KTYQ 111015Z AUTO 02004KT 10SM OVC060 06/02 A3024 RMK AO2 T00590018
KTYQ 110955Z AUTO 02004KT 10SM -RA BKN065 OVC075 06/02 A3023 RMK AO2 T00600017
KTYQ 110940Z AUTO 01005KT 10SM SCT060 OVC075 06/02 A3023 RMK AO2 T00600016
KTYQ 110915Z AUTO 35005KT 10SM OVC060 06/02 A3023 RMK AO2 T00620019
KTYQ 110855Z AUTO 36006KT 10SM OVC060 07/03 A3021 RMK AO2 60005 T00650029
KTYQ 110835Z AUTO 01005KT 10SM SCT047 OVC060 07/04 A3021 RMK AO2 T00650044
KTYQ 110815Z AUTO 01005KT 10SM SCT048 BKN060 OVC120 07/05 A3020 RMK AO2 T00650046
KTYQ 110755Z AUTO 03007KT 10SM BKN048 BKN060 OVC070 07/05 A3019 RMK AO2 P0002 T00650048
KTYQ 110735Z AUTO 03006KT 10SM -RA SCT044 OVC050 07/05 A3019 RMK AO2 P0002 T00670051
KTYQ 110715Z AUTO 35006KT 10SM -RA SCT030 OVC044 07/05 A3019 RMK AO2 P0001 T00700050
KTYQ 110655Z AUTO 02008KT 10SM RA SCT031 BKN037 OVC046 07/05 A3019 RMK AO2 P0003 T00730051
KTYQ 110635Z AUTO 35006KT 7SM +RA SCT013 OVC037 08/06 A3019 RMK AO2 P0002 T00780060
KTYQ 110615Z AUTO 01005KT 10SM -RA SCT013 BKN038 OVC044 09/07 A3019 RMK AO2 T00850072
KTYQ 110555Z AUTO 02006KT 10SM -DZ OVC046 09/08 A3018 RMK AO2 60004 T00860075 10134 20085
KTYQ 110535Z AUTO 03005KT 10SM BKN048 BKN055 OVC065 09/08 A3018 RMK AO2 T00850077
KTYQ 110515Z AUTO 04004KT 10SM SCT044 BKN055 OVC065 09/08 A3017 RMK AO2 T00850076
KTYQ 110455Z AUTO 03005KT 10SM -RA BKN046 OVC050 09/08 A3017 RMK AO2 P0003 T00850075
KTYQ 110435Z AUTO 01005KT 10SM RA BKN043 OVC050 09/08 A3017 RMK AO2 P0002 T00860075
KTYQ 110415Z AUTO 34005KT 7SM RA SCT040 BKN046 OVC050 09/07 A3018 RMK AO2 P0002 T00890073
KTYQ 110355Z AUTO 00000KT 10SM RA SCT046 OVC065 09/07 A3018 RMK AO2 P0001 T00920072 401500000
KTYQ 110335Z AUTO 07003KT 10SM -RA SCT050 OVC065 10/07 A3018 RMK AO2 T00950071
KTYQ 110315Z AUTO 02004KT 10SM -RA OVC055 10/07 A3018 RMK AO2 T00950071
KTYQ 110255Z AUTO 35007KT 10SM -RA OVC065 10/07 A3017 RMK AO2 T00950072
KTYQ 110235Z AUTO 36007KT 7SM -RA BKN050 OVC065 10/07 A3016 RMK AO2 T00970072
KTYQ 110215Z AUTO 36006KT 10SM -RA OVC055 10/07 A3016 RMK AO2 T01000072
KTYQ 110155Z AUTO 36007KT 10SM -RA OVC060 10/07 A3015 RMK AO2 T01020069
KTYQ 110135Z AUTO 36008KT 10SM -RA OVC060 11/07 A3014 RMK AO2 T01050071
KTYQ 110115Z AUTO 36008KT 10SM OVC060 11/07 A3014 RMK AO2 T01050072
KTYQ 110055Z AUTO 36013G17KT 10SM -DZ OVC060 12/07 A3013 RMK AO2 T01170068
KTYQ 110035Z AUTO 36004KT 10SM OVC060 13/07 A3012 RMK AO2 T01260065
KTYQ 110015Z AUTO 34004KT 10SM BKN070 OVC080 13/06 A3012 RMK AO2 T01300062
KTYQ 102355Z AUTO 33003KT 10SM BKN055 OVC065 14/05 A3012 RMK AO2 T01350051 10150 20134
KTYQ 102335Z AUTO 00000KT 10SM BKN055 OVC085 14/05 A3012 RMK AO2 T01350052
KTYQ 102315Z AUTO 26003KT 10SM SCT055 OVC085 14/04 A3012 RMK AO2 T01370043
KTYQ 102255Z AUTO 26003KT 10SM BKN055 OVC095 14/04 A3011 RMK AO2 T01400037
KTYQ 102235Z AUTO 23003KT 10SM BKN055 OVC100 14/03 A3012 RMK AO2 T01410034
KTYQ 102215Z AUTO 24008KT 10SM BKN055 OVC110 15/05 A3012 RMK AO2 T01470046
KTYQ 102155Z AUTO 26003KT 10SM BKN055 OVC120 15/03 A3011 RMK AO2 T01460030
KTYQ 102135Z AUTO 00000KT 10SM BKN055 BKN120 15/03 A3011 RMK AO2 T01480030
KTYQ 102115Z AUTO 23003KT 10SM SCT055 15/03 A3012 RMK AO2 T01470031
KTYQ 102055Z AUTO 35004KT 10SM CLR 15/03 A3012 RMK AO2 T01480033
KTYQ 102035Z AUTO 31006KT 10SM CLR 15/03 A3013 RMK AO2 T01460025
KTYQ 102015Z AUTO 34007KT 10SM CLR 15/03 A3013 RMK AO2 T01490032
KTYQ 101955Z AUTO 27006KT 10SM SCT049 15/03 A3013 RMK AO2 T01490026
KTYQ 101935Z AUTO 30003KT 10SM SCT047 14/04 A3013 RMK AO2 T01440038
KTYQ 101915Z AUTO 33005KT 10SM SCT045 14/05 A3014 RMK AO2 T01440045
KTYQ 101855Z AUTO 28006KT 10SM BKN045 14/06 A3014 RMK AO2 T01440058
KTYQ 101835Z AUTO 29006KT 10SM SCT045 14/05 A3015 RMK AO2 T01420046
KTYQ 101815Z AUTO 32004KT 10SM SCT043 14/06 A3015 RMK AO2 T01420061
KTYQ 101755Z AUTO 30006KT 10SM CLR 14/05 A3015 RMK AO2 T01370051 10137 20033
KTYQ 101735Z AUTO 29007KT 10SM CLR 13/05 A3014 RMK AO2 T01320054
KTYQ 101715Z AUTO 27005KT 10SM SCT036 13/04 A3014 RMK AO2 T01270043
KTYQ 101655Z AUTO 24006KT 10SM SCT036 12/05 A3015 RMK AO2 T01240048
KTYQ 101635Z AUTO 26008KT 10SM SCT034 SCT110 12/05 A3016 RMK AO2 T01230053
KTYQ 101615Z AUTO 29005KT 10SM BKN110 12/05 A3016 RMK AO2 T01190047
KTYQ 101555Z AUTO 23005KT 10SM CLR 12/05 A3016 RMK AO2 T01180052
KTYQ 101535Z AUTO 24006KT 10SM CLR 11/05 A3014 RMK AO2 T01120049
KTYQ 101515Z AUTO 25004KT 10SM CLR 11/05 A3014 RMK AO2 T01100047
KTYQ 101455Z AUTO 26005KT 10SM CLR 11/05 A3014 RMK AO2 T01070050
KTYQ 101435Z AUTO 26006KT 10SM CLR 10/05 A3014 RMK AO2 T01000051
KTYQ 101415Z AUTO 27005KT 10SM CLR 09/05 A3014 RMK AO2 T00920049
KTYQ 101355Z AUTO 27007KT 10SM CLR 09/06 A3014 RMK AO2 T00880056
KTYQ 101335Z AUTO 29004KT 10SM CLR 08/05 A3014 RMK AO2 T00800050
KTYQ 101315Z AUTO 27004KT 10SM CLR 07/05 A3014 RMK AO2 T00720054